Hovedside
METAR-TAF:

METAR-TAF

Lufthavner :

Córdoba, Argentina

breddegrad: 31-19S, lengdegrad: 064-13W, høyde over havet: 484 m

Gjeldene værobservasjon

Denne rapporten ble laget for 25 minutter siden, klokken 10:00 UTC
Vind 9 kt fra Nord-nordøst
Temperatur 15°C
Luftfuktighet 51%
Trykk 1016 hPa
Sikt 10 km eller mer
ingen skyer under 1500 m og ingen bygeskyer

METAR: SACO 191000Z 02009KT CAVOK 15/05 Q1016 NOSIG

Tid: 07:25 (10:25 UTC)

Varsel

Denne rapporten ble laget for 5 timer og 25 minutter siden, klokken 05:00 UTC
Varsel gyldig fra 19. klokken 06 UTC til 20. klokken 06 UTC
Vind 10 kt fra Nordøst
Sikt 10 km eller mer
ingen skyer under 1500 m og ingen bygeskyer
Blir
fra 19. klokken 11 UTC til 19. klokken 13 UTC
Vind 15 kt fra Nordøst
Sikt 10 km eller mer
Spredte skyer i en høyde av 3000 ft

TAF: SACO 190500Z 1906/2006 05010KT CAVOK TX28/1918Z TN14/1910Z BECMG 1911/1913 05015KT 9999 SCT030

Værobservasjoner og værvarsel for over 4000 flyplasser (METAR- og TAF-rapporter).

Tilgjengelige stasjoner er representert av de røde og gule prikkene på kartet.

Hold musepekeren over prikken for å se navnet på stasjonen.

Klikk så for å se værobservasjoner og -varsler.

For å forandre kartet kan du klikke på den grønne knappen med svart kryss for å zoome inn, på den grønne knappen med strek for å zoome ut, eller på de grønne pilene for å se tilstøtende kart.


METAR-TAF: